Time;durP1;ratioP1;P1;durP2;ratioP2;P2;SDS_P1;SDS_P2;PMS_P1;PMS_P2;Temp;Humidity;BMP_temperature;BMP_pressure;BME280_temperature;BME280_humidity;BME280_pressure;Samples;Min_cycle;Max_cycle;Signal;HPM_P1;HPM_P2
2023/05/30 00:01:03;;;;;;;;;;;;;;;;;;5076135;28;19924;-63
2023/05/30 00:03:29;;;;;;;;;;;;;;;;;;5076069;28;19928;-63
2023/05/30 00:05:55;;;;;;;;;;;;;;;;;;5076051;28;19931;-63
2023/05/30 00:08:21;;;;;;;;;;;;;;;;;;5075807;28;20279;-63
2023/05/30 00:10:47;;;;;;;;;;;;;;;;;;5076045;28;20011;-63
2023/05/30 00:13:13;;;;;;;;;;;;;;;;;;5057624;28;20071;-63
2023/05/30 00:15:40;;;;;;;;;;;;;;;;;;5041050;28;19974;-63
2023/05/30 00:18:06;;;;;;;;;;;;;;;;;;5057838;28;19946;-63
2023/05/30 00:20:33;;;;;;;;;;;;;;;;;;5075133;28;20361;-63
2023/05/30 00:22:59;;;;;;;;;;;;;;;;;;5074694;28;20328;-62
2023/05/30 00:25:25;;;;;;;;;;;;;;;;;;5074736;28;19920;-63
2023/05/30 00:27:51;;;;;;;;;;;;;;;;;;5074734;28;19970;-63
2023/05/30 00:30:17;;;;;;;;;;;;;;;;;;5075051;28;19920;-63
2023/05/30 00:32:43;;;;;;;;;;;;;;;;;;5074885;28;19928;-63
2023/05/30 00:35:09;;;;;;;;;;;;;;;;;;5074588;28;19933;-64
2023/05/30 00:37:34;;;;;;;;;;;;;;;;;;5074662;28;20267;-63
2023/05/30 00:40:00;;;;;;;;;;;;;;;;;;5074887;28;19947;-63
2023/05/30 00:42:27;;;;;;;;;;;;;;;;;;5074986;28;19927;-63
2023/05/30 00:44:52;;;;;;;;;;;;;;;;;;5056850;28;20443;-63
2023/05/30 00:47:18;;;;;;;;;;;;;;;;;;5074364;28;19924;-63
2023/05/30 00:49:44;;;;;;;;;;;;;;;;;;5074084;28;20015;-63
2023/05/30 00:52:11;;;;;;;;;;;;;;;;;;5073987;28;19931;-63
2023/05/30 00:54:37;;;;;;;;;;;;;;;;;;5074088;28;19921;-63
2023/05/30 00:57:03;;;;;;;;;;;;;;;;;;5073993;28;19935;-63
2023/05/30 00:59:29;;;;;;;;;;;;;;;;;;5074300;28;19928;-63
2023/05/30 01:01:56;;;;;;;;;;;;;;;;;;5074137;28;19926;-63
2023/05/30 01:04:22;;;;;;;;;;;;;;;;;;5073732;28;19932;-63
2023/05/30 01:06:48;;;;;;;;;;;;;;;;;;5073495;28;19920;-63
2023/05/30 01:09:14;;;;;;;;;;;;;;;;;;5055997;28;20286;-63
2023/05/30 01:11:40;;;;;;;;;;;;;;;;;;5056440;28;19960;-67
2023/05/30 01:14:06;;;;;;;;;;;;;;;;;;5074085;28;19927;-67
2023/05/30 01:16:32;;;;;;;;;;;;;;;;;;5073714;28;19924;-64
2023/05/30 01:18:58;;;;;;;;;;;;;;;;;;5073531;28;20003;-64
2023/05/30 01:21:24;;;;;;;;;;;;;;;;;;5073675;28;19930;-63
2023/05/30 01:23:52;;;;;;;;;;;;;;;;;;5073572;28;19921;-65
2023/05/30 01:26:18;;;;;;;;;;;;;;;;;;5073649;28;19932;-63
2023/05/30 01:28:44;;;;;;;;;;;;;;;;;;5073910;28;20007;-63
2023/05/30 01:31:10;;;;;;;;;;;;;;;;;;5055941;28;20008;-63
2023/05/30 01:33:36;;;;;;;;;;;;;;;;;;5039428;28;19959;-62
2023/05/30 01:36:02;;;;;;;;;;;;;;;;;;5073907;28;19931;-63
2023/05/30 01:38:28;;;;;;;;;;;;;;;;;;5074124;28;20003;-63
2023/05/30 01:40:54;;;;;;;;;;;;;;;;;;5073816;28;19951;-63
2023/05/30 01:43:20;;;;;;;;;;;;;;;;;;5074107;28;20541;-63
2023/05/30 01:45:46;;;;;;;;;;;;;;;;;;5055939;28;19920;-63
2023/05/30 01:48:12;;;;;;;;;;;;;;;;;;5073800;28;19971;-63
2023/05/30 01:50:38;;;;;;;;;;;;;;;;;;5073999;28;19924;-63
2023/05/30 01:53:04;;;;;;;;;;;;;;;;;;5073549;28;20436;-63
2023/05/30 01:55:30;;;;;;;;;;;;;;;;;;5073598;28;19989;-63
2023/05/30 01:57:56;;;;;;;;;;;;;;;;;;5055495;28;20370;-63
2023/05/30 02:00:22;;;;;;;;;;;;;;;;;;5073304;28;19920;-63
2023/05/30 02:02:48;;;;;;;;;;;;;;;;;;5073040;28;19920;-63
2023/05/30 02:05:14;;;;;;;;;;;;;;;;;;5054775;28;20378;-63
2023/05/30 02:07:40;;;;;;;;;;;;;;;;;;5072836;28;19931;-63
2023/05/30 02:10:06;;;;;;;;;;;;;;;;;;5054752;28;19920;-63
2023/05/30 02:12:32;;;;;;;;;;;;;;;;;;5073312;28;19927;-63
2023/05/30 02:14:57;;;;;;;;;;;;;;;;;;5072641;28;19920;-63
2023/05/30 02:17:23;;;;;;;;;;;;;;;;;;5071542;28;19980;-62
2023/05/30 02:19:49;;;;;;;;;;;;;;;;;;5072363;28;19935;-62
2023/05/30 02:22:15;;;;;;;;;;;;;;;;;;5072430;28;19921;-63
2023/05/30 02:24:41;;;;;;;;;;;;;;;;;;5072657;28;19943;-63
2023/05/30 02:27:07;;;;;;;;;;;;;;;;;;5073469;28;20337;-62
2023/05/30 02:29:33;;;;;;;;;;;;;;;;;;5073286;28;19964;-63
2023/05/30 02:31:59;;;;;;;;;;;;;;;;;;5073052;28;19928;-63
2023/05/30 02:34:25;;;;;;;;;;;;;;;;;;5073161;28;19920;-62
2023/05/30 02:36:51;;;;;;;;;;;;;;;;;;5072917;28;19924;-63
2023/05/30 02:39:17;;;;;;;;;;;;;;;;;;5073015;28;20274;-63
2023/05/30 02:41:43;;;;;;;;;;;;;;;;;;5073170;28;19921;-63
2023/05/30 02:44:09;;;;;;;;;;;;;;;;;;5073334;28;20011;-63
2023/05/30 02:46:35;;;;;;;;;;;;;;;;;;5072971;28;19924;-63
2023/05/30 02:49:01;;;;;;;;;;;;;;;;;;5054826;28;20381;-62
2023/05/30 02:51:27;;;;;;;;;;;;;;;;;;5072887;28;19920;-63
2023/05/30 02:53:55;;;;;;;;;;;;;;;;;;5054643;28;20326;-63
2023/05/30 02:56:22;;;;;;;;;;;;;;;;;;5073107;28;20030;-63
2023/05/30 02:58:49;;;;;;;;;;;;;;;;;;5072689;28;19965;-63
2023/05/30 03:01:15;;;;;;;;;;;;;;;;;;5072937;28;19921;-63
2023/05/30 03:03:42;;;;;;;;;;;;;;;;;;5072836;28;19945;-63
2023/05/30 03:06:08;;;;;;;;;;;;;;;;;;5072898;28;19993;-62
2023/05/30 03:08:35;;;;;;;;;;;;;;;;;;5072949;28;19920;-62
2023/05/30 03:11:01;;;;;;;;;;;;;;;;;;5072430;28;19920;-62
2023/05/30 03:13:27;;;;;;;;;;;;;;;;;;5072563;28;19985;-63
2023/05/30 03:15:53;;;;;;;;;;;;;;;;;;5054373;28;19921;-62
2023/05/30 03:18:19;;;;;;;;;;;;;;;;;;5072580;28;19925;-63
2023/05/30 03:20:45;;;;;;;;;;;;;;;;;;5072314;28;19929;-62
2023/05/30 03:23:11;;;;;;;;;;;;;;;;;;5072359;28;19931;-63
2023/05/30 03:25:36;;;;;;;;;;;;;;;;;;5072084;28;20390;-63
2023/05/30 03:28:06;;;;;;;;;;;;;;;;;;5071970;28;20023;-63
2023/05/30 03:30:31;;;;;;;;;;;;;;;;;;5075998;28;19965;-62
2023/05/30 03:32:57;;;;;;;;;;;;;;;;;;5076342;28;20305;-63
2023/05/30 03:35:23;;;;;;;;;;;;;;;;;;5057889;28;19924;-63
2023/05/30 03:37:49;;;;;;;;;;;;;;;;;;5076364;28;19982;-62
2023/05/30 03:40:15;;;;;;;;;;;;;;;;;;5076073;28;19924;-63
2023/05/30 03:42:41;;;;;;;;;;;;;;;;;;5076115;28;20090;-62
2023/05/30 03:45:07;;;;;;;;;;;;;;;;;;5075952;28;20398;-62
2023/05/30 03:47:33;;;;;;;;;;;;;;;;;;5076052;28;19924;-62
2023/05/30 03:50:00;;;;;;;;;;;;;;;;;;5075828;28;19974;-62
2023/05/30 03:52:26;;;;;;;;;;;;;;;;;;5075951;28;19928;-62
2023/05/30 03:54:52;;;;;;;;;;;;;;;;;;5075736;28;20571;-63
2023/05/30 03:57:17;;;;;;;;;;;;;;;;;;5057582;28;20020;-63
2023/05/30 03:59:43;;;;;;;;;;;;;;;;;;5075718;28;20021;-62
2023/05/30 04:02:09;;;;;;;;;;;;;;;;;;5075841;28;19932;-63
2023/05/30 04:04:35;;;;;;;;;;;;;;;;;;5075916;28;19927;-63
2023/05/30 04:07:02;;;;;;;;;;;;;;;;;;5057552;28;19921;-63
2023/05/30 04:09:27;;;;;;;;;;;;;;;;;;5075382;28;20434;-62
2023/05/30 04:11:53;;;;;;;;;;;;;;;;;;5075585;28;19920;-63
2023/05/30 04:14:19;;;;;;;;;;;;;;;;;;5075407;28;19925;-62
2023/05/30 04:16:45;;;;;;;;;;;;;;;;;;5075089;28;19924;-63
2023/05/30 04:19:11;;;;;;;;;;;;;;;;;;5075207;28;19920;-63
2023/05/30 04:21:37;;;;;;;;;;;;;;;;;;5075373;28;19986;-63
2023/05/30 04:24:03;;;;;;;;;;;;;;;;;;5075322;28;19927;-63
2023/05/30 04:26:31;;;;;;;;;;;;;;;;;;5075369;28;19924;-63
2023/05/30 04:28:57;;;;;;;;;;;;;;;;;;5075124;28;20015;-62
2023/05/30 04:31:23;;;;;;;;;;;;;;;;;;5075103;28;19964;-62
2023/05/30 04:33:50;;;;;;;;;;;;;;;;;;5074466;28;20266;-63
2023/05/30 04:36:18;;;;;;;;;;;;;;;;;;5074017;28;19924;-62
2023/05/30 04:38:44;;;;;;;;;;;;;;;;;;5074693;28;19920;-62
2023/05/30 04:41:10;;;;;;;;;;;;;;;;;;5073138;28;19924;-63
2023/05/30 04:43:36;;;;;;;;;;;;;;;;;;5073921;28;19995;-62
2023/05/30 04:46:04;;;;;;;;;;;;;;;;;;5074532;28;20277;-62
2023/05/30 04:48:30;;;;;;;;;;;;;;;;;;5074672;28;19921;-62
2023/05/30 04:50:58;;;;;;;;;;;;;;;;;;5056739;28;19954;-62
2023/05/30 04:53:24;;;;;;;;;;;;;;;;;;5074495;28;20266;-62
2023/05/30 04:55:50;;;;;;;;;;;;;;;;;;5074613;28;19975;-62
2023/05/30 04:58:19;;;;;;;;;;;;;;;;;;5074780;28;19932;-63
2023/05/30 05:00:45;;;;;;;;;;;;;;;;;;5074731;28;20365;-62
2023/05/30 05:03:10;;;;;;;;;;;;;;;;;;5056340;28;19970;-62
2023/05/30 05:05:36;;;;;;;;;;;;;;;;;;5074605;28;20397;-62
2023/05/30 05:08:02;;;;;;;;;;;;;;;;;;5056563;28;19921;-62
2023/05/30 05:10:28;;;;;;;;;;;;;;;;;;5056351;28;19967;-62
2023/05/30 05:12:54;;;;;;;;;;;;;;;;;;5074373;28;20011;-63
2023/05/30 05:15:20;;;;;;;;;;;;;;;;;;5074148;28;19927;-63
2023/05/30 05:17:46;;;;;;;;;;;;;;;;;;5074043;28;20003;-62
2023/05/30 05:20:12;;;;;;;;;;;;;;;;;;5074174;28;19939;-62
2023/05/30 05:22:38;;;;;;;;;;;;;;;;;;5074158;28;19920;-62
2023/05/30 05:25:06;;;;;;;;;;;;;;;;;;5074135;28;20009;-62
2023/05/30 05:27:32;;;;;;;;;;;;;;;;;;5074073;28;19932;-62
2023/05/30 05:29:58;;;;;;;;;;;;;;;;;;5073958;28;20027;-62
2023/05/30 05:32:24;;;;;;;;;;;;;;;;;;5073900;28;19920;-62
2023/05/30 05:34:52;;;;;;;;;;;;;;;;;;5073761;28;19989;-63
2023/05/30 05:37:18;;;;;;;;;;;;;;;;;;5073995;28;19932;-62
2023/05/30 05:39:43;;;;;;;;;;;;;;;;;;5073751;28;20450;-62
2023/05/30 05:42:09;;;;;;;;;;;;;;;;;;5073721;28;20346;-62
2023/05/30 05:44:35;;;;;;;;;;;;;;;;;;5055655;28;19962;-62
2023/05/30 05:47:01;;;;;;;;;;;;;;;;;;5073704;28;19924;-62
2023/05/30 05:49:27;;;;;;;;;;;;;;;;;;5073492;28;19996;-62
2023/05/30 05:51:53;;;;;;;;;;;;;;;;;;5038657;28;20020;-62
2023/05/30 05:54:19;;;;;;;;;;;;;;;;;;5073340;28;19932;-62
2023/05/30 05:56:45;;;;;;;;;;;;;;;;;;5055493;28;19925;-62
2023/05/30 05:59:12;;;;;;;;;;;;;;;;;;5054977;28;19920;-62
2023/05/30 06:01:38;;;;;;;;;;;;;;;;;;5055662;28;20025;-62
2023/05/30 06:04:04;;;;;;;;;;;;;;;;;;5055414;28;19921;-62
2023/05/30 06:06:30;;;;;;;;;;;;;;;;;;5055274;28;19965;-63
2023/05/30 06:08:56;;;;;;;;;;;;;;;;;;5073245;28;20006;-62
2023/05/30 06:11:22;;;;;;;;;;;;;;;;;;5054969;28;20439;-62
2023/05/30 06:13:48;;;;;;;;;;;;;;;;;;5073301;28;19934;-63
2023/05/30 06:16:14;;;;;;;;;;;;;;;;;;5072672;28;19924;-62
2023/05/30 06:18:40;;;;;;;;;;;;;;;;;;5073103;28;19925;-62
2023/05/30 06:21:06;;;;;;;;;;;;;;;;;;5054962;28;19920;-62
2023/05/30 06:23:32;;;;;;;;;;;;;;;;;;5055114;28;19921;-62
2023/05/30 06:25:58;;;;;;;;;;;;;;;;;;5054912;28;20301;-62
2023/05/30 06:28:24;;;;;;;;;;;;;;;;;;5072720;28;19921;-62
2023/05/30 06:30:50;;;;;;;;;;;;;;;;;;5072334;28;19921;-62
2023/05/30 06:33:16;;;;;;;;;;;;;;;;;;5072525;28;19920;-62
2023/05/30 06:35:42;;;;;;;;;;;;;;;;;;5072257;28;19977;-63
2023/05/30 06:38:07;;;;;;;;;;;;;;;;;;5072562;28;19982;-62
2023/05/30 06:40:33;;;;;;;;;;;;;;;;;;5054947;28;19921;-62
2023/05/30 06:42:59;;;;;;;;;;;;;;;;;;5072267;28;20402;-62
2023/05/30 06:45:25;;;;;;;;;;;;;;;;;;5072735;28;19999;-62
2023/05/30 06:47:51;;;;;;;;;;;;;;;;;;5072703;28;19928;-62
2023/05/30 06:50:17;;;;;;;;;;;;;;;;;;5072580;28;19959;-62
2023/05/30 06:52:43;;;;;;;;;;;;;;;;;;5072676;28;20029;-62
2023/05/30 06:55:09;;;;;;;;;;;;;;;;;;5071524;28;20381;-62
2023/05/30 06:57:36;;;;;;;;;;;;;;;;;;5072321;28;19942;-62
2023/05/30 07:00:03;;;;;;;;;;;;;;;;;;5072459;28;19924;-63
2023/05/30 07:02:29;;;;;;;;;;;;;;;;;;5072407;28;19972;-63
2023/05/30 07:04:55;;;;;;;;;;;;;;;;;;5072136;28;19959;-63
2023/05/30 07:07:21;;;;;;;;;;;;;;;;;;5054445;28;19925;-62
2023/05/30 07:09:46;;;;;;;;;;;;;;;;;;5072621;28;20019;-63
2023/05/30 07:12:12;;;;;;;;;;;;;;;;;;5072244;28;19927;-62
2023/05/30 07:14:38;;;;;;;;;;;;;;;;;;5072396;28;20287;-62
2023/05/30 07:17:06;;;;;;;;;;;;;;;;;;5071939;28;19928;-63
2023/05/30 07:19:32;;;;;;;;;;;;;;;;;;5071915;28;20328;-63
2023/05/30 07:21:58;;;;;;;;;;;;;;;;;;5071982;28;19921;-63
2023/05/30 07:24:24;;;;;;;;;;;;;;;;;;5071813;28;20034;-63
2023/05/30 07:26:50;;;;;;;;;;;;;;;;;;5071529;28;19920;-63
2023/05/30 07:29:16;;;;;;;;;;;;;;;;;;5071656;28;19963;-63
2023/05/30 07:31:42;;;;;;;;;;;;;;;;;;5071664;28;20051;-63
2023/05/30 07:34:07;;;;;;;;;;;;;;;;;;5071609;28;19921;-63
2023/05/30 07:36:33;;;;;;;;;;;;;;;;;;5052903;28;20398;-63
2023/05/30 07:38:59;;;;;;;;;;;;;;;;;;5071456;28;19925;-63
2023/05/30 07:41:26;;;;;;;;;;;;;;;;;;5071975;28;19931;-63
2023/05/30 07:43:51;;;;;;;;;;;;;;;;;;5072013;28;19924;-63
2023/05/30 07:46:18;;;;;;;;;;;;;;;;;;5072027;28;19920;-63
2023/05/30 07:48:43;;;;;;;;;;;;;;;;;;5072217;28;20015;-63
2023/05/30 07:51:09;;;;;;;;;;;;;;;;;;5071642;28;19975;-63
2023/05/30 07:53:36;;;;;;;;;;;;;;;;;;5071864;28;19952;-63
2023/05/30 07:56:02;;;;;;;;;;;;;;;;;;5071645;28;19925;-63
2023/05/30 07:58:28;;;;;;;;;;;;;;;;;;5072066;28;19921;-63
2023/05/30 08:00:54;;;;;;;;;;;;;;;;;;5072104;28;19943;-63
2023/05/30 08:03:20;;;;;;;;;;;;;;;;;;5072041;28;19924;-63
2023/05/30 08:05:51;;;;;;;;;;;;;;;;;;5071858;28;19967;-63
2023/05/30 08:08:17;;;;;;;;;;;;;;;;;;5071759;28;20374;-63
2023/05/30 08:10:42;;;;;;;;;;;;;;;;;;5071953;28;19927;-63
2023/05/30 08:13:08;;;;;;;;;;;;;;;;;;5071716;28;19920;-63
2023/05/30 08:15:34;;;;;;;;;;;;;;;;;;5054596;28;20309;-63
2023/05/30 08:18:02;;;;;;;;;;;;;;;;;;5075412;28;19932;-63
2023/05/30 08:20:29;;;;;;;;;;;;;;;;;;5057444;28;19926;-63
2023/05/30 08:22:55;;;;;;;;;;;;;;;;;;5075417;28;19920;-63
2023/05/30 08:25:21;;;;;;;;;;;;;;;;;;5074939;28;19920;-63
2023/05/30 08:27:47;;;;;;;;;;;;;;;;;;5057111;28;19921;-63
2023/05/30 08:30:13;;;;;;;;;;;;;;;;;;5075150;28;20322;-63
2023/05/30 08:32:40;;;;;;;;;;;;;;;;;;5057772;28;20301;-63
2023/05/30 08:35:05;;;;;;;;;;;;;;;;;;5075095;28;19944;-64
2023/05/30 08:37:31;;;;;;;;;;;;;;;;;;5074853;28;20258;-63
2023/05/30 08:39:57;;;;;;;;;;;;;;;;;;5075274;28;20020;-63
2023/05/30 08:42:23;;;;;;;;;;;;;;;;;;5075224;28;19928;-63
2023/05/30 08:44:49;;;;;;;;;;;;;;;;;;5075262;28;20019;-63
2023/05/30 08:47:15;;;;;;;;;;;;;;;;;;5074913;28;19924;-63
2023/05/30 08:52:09;;;;;;;;;;;;;;;;;;5049798;28;19932;-66
2023/05/30 08:54:36;;;;;;;;;;;;;;;;;;5053983;28;19936;-66
2023/05/30 08:57:03;;;;;;;;;;;;;;;;;;5053504;28;20541;-66
2023/05/30 08:59:29;;;;;;;;;;;;;;;;;;5053772;28;19932;-66
2023/05/30 09:01:55;;;;;;;;;;;;;;;;;;5053517;28;20354;-66
2023/05/30 09:04:21;;;;;;;;;;;;;;;;;;5053931;28;19928;-66
2023/05/30 09:06:47;;;;;;;;;;;;;;;;;;5053816;28;19921;-66
2023/05/30 09:09:14;;;;;;;;;;;;;;;;;;5053776;28;20286;-66
2023/05/30 09:11:40;;;;;;;;;;;;;;;;;;5053599;28;20020;-66
2023/05/30 09:14:05;;;;;;;;;;;;;;;;;;5053491;28;20073;-66
2023/05/30 09:16:31;;;;;;;;;;;;;;;;;;5051734;28;20418;-66
2023/05/30 09:18:57;;;;;;;;;;;;;;;;;;5053261;28;19931;-66
2023/05/30 09:21:23;;;;;;;;;;;;;;;;;;5052660;28;19970;-66
2023/05/30 09:23:49;;;;;;;;;;;;;;;;;;5052684;28;20426;-68
2023/05/30 09:26:15;;;;;;;;;;;;;;;;;;5052545;28;19932;-66
2023/05/30 09:28:41;;;;;;;;;;;;;;;;;;5052466;28;19935;-66
2023/05/30 09:31:07;;;;;;;;;;;;;;;;;;5052088;28;19921;-66
2023/05/30 09:33:33;;;;;;;;;;;;;;;;;;5052901;28;19921;-66
2023/05/30 09:35:59;;;;;;;;;;;;;;;;;;5052762;28;19925;-67
2023/05/30 09:38:25;;;;;;;;;;;;;;;;;;5053352;28;20432;-66
2023/05/30 09:40:51;;;;;;;;;;;;;;;;;;5053021;28;19928;-66
2023/05/30 09:43:17;;;;;;;;;;;;;;;;;;5051595;28;19921;-66
2023/05/30 09:45:43;;;;;;;;;;;;;;;;;;5051611;28;19951;-67
2023/05/30 09:48:09;;;;;;;;;;;;;;;;;;5053022;28;19920;-66
2023/05/30 09:50:34;;;;;;;;;;;;;;;;;;5052675;28;19991;-67
2023/05/30 09:53:00;;;;;;;;;;;;;;;;;;5052973;28;20636;-66
2023/05/30 09:55:26;;;;;;;;;;;;;;;;;;5052925;28;19925;-66
2023/05/30 09:57:53;;;;;;;;;;;;;;;;;;5052619;28;20024;-66
2023/05/30 10:00:19;;;;;;;;;;;;;;;;;;5052530;28;19929;-67
2023/05/30 10:02:45;;;;;;;;;;;;;;;;;;5051120;28;19951;-66
2023/05/30 10:05:11;;;;;;;;;;;;;;;;;;5052767;28;19921;-66
2023/05/30 10:07:37;;;;;;;;;;;;;;;;;;5052620;28;19929;-66
2023/05/30 10:10:03;;;;;;;;;;;;;;;;;;5052621;28;20503;-66
2023/05/30 10:12:28;;;;;;;;;;;;;;;;;;5052306;28;19924;-66
2023/05/30 10:14:54;;;;;;;;;;;;;;;;;;5052109;28;19931;-66
2023/05/30 10:17:21;;;;;;;;;;;;;;;;;;5052294;28;19953;-66
2023/05/30 10:19:47;;;;;;;;;;;;;;;;;;5052209;28;19929;-67
2023/05/30 10:22:12;;;;;;;;;;;;;;;;;;5052046;28;19921;-66
2023/05/30 10:24:38;;;;;;;;;;;;;;;;;;5033937;28;19928;-66
2023/05/30 10:27:04;;;;;;;;;;;;;;;;;;5051470;28;19925;-66
2023/05/30 10:29:30;;;;;;;;;;;;;;;;;;5051312;28;19990;-66
2023/05/30 10:31:56;;;;;;;;;;;;;;;;;;5051130;28;20557;-67
2023/05/30 10:34:22;;;;;;;;;;;;;;;;;;5051098;28;19929;-66
2023/05/30 10:36:48;;;;;;;;;;;;;;;;;;5051292;28;20694;-66
2023/05/30 10:39:14;;;;;;;;;;;;;;;;;;5051185;28;20393;-66
2023/05/30 10:41:40;;;;;;;;;;;;;;;;;;5051277;28;20414;-66
2023/05/30 10:44:06;;;;;;;;;;;;;;;;;;5050881;28;19924;-66
2023/05/30 10:46:32;;;;;;;;;;;;;;;;;;5051049;28;19920;-66
2023/05/30 10:48:58;;;;;;;;;;;;;;;;;;5050889;28;19964;-66
2023/05/30 10:51:24;;;;;;;;;;;;;;;;;;5050906;28;19997;-66
2023/05/30 10:53:50;;;;;;;;;;;;;;;;;;5033756;28;19925;-66
2023/05/30 10:56:16;;;;;;;;;;;;;;;;;;5051913;28;19921;-66
2023/05/30 10:58:43;;;;;;;;;;;;;;;;;;5051073;28;21299;-66
2023/05/30 11:01:10;;;;;;;;;;;;;;;;;;5051614;28;19925;-66
2023/05/30 11:03:36;;;;;;;;;;;;;;;;;;5051722;28;19927;-66
2023/05/30 11:06:02;;;;;;;;;;;;;;;;;;5051479;28;20401;-66
2023/05/30 11:08:28;;;;;;;;;;;;;;;;;;5051388;28;19928;-66
2023/05/30 11:10:54;;;;;;;;;;;;;;;;;;5051667;28;19924;-66
2023/05/30 11:13:19;;;;;;;;;;;;;;;;;;5050140;28;20424;-66
2023/05/30 11:15:46;;;;;;;;;;;;;;;;;;5051351;28;19921;-66
2023/05/30 11:18:11;;;;;;;;;;;;;;;;;;5049946;28;20342;-66
2023/05/30 11:20:41;;;;;;;;;;;;;;;;;;5051559;28;19921;-66
2023/05/30 11:23:07;;;;;;;;;;;;;;;;;;5051549;28;20254;-66
2023/05/30 11:25:33;;;;;;;;;;;;;;;;;;5051745;28;19924;-66
2023/05/30 11:27:59;;;;;;;;;;;;;;;;;;5051354;28;19928;-66
2023/05/30 11:30:25;;;;;;;;;;;;;;;;;;5051366;28;19944;-66
2023/05/30 11:32:53;;;;;;;;;;;;;;;;;;5051627;28;19921;-66
2023/05/30 11:35:19;;;;;;;;;;;;;;;;;;5051483;28;20008;-66
2023/05/30 11:37:45;;;;;;;;;;;;;;;;;;5051458;28;19986;-66
2023/05/30 11:40:13;;;;;;;;;;;;;;;;;;5051157;28;20003;-66
2023/05/30 11:42:38;;;;;;;;;;;;;;;;;;5051473;28;20018;-66
2023/05/30 11:45:05;;;;;;;;;;;;;;;;;;5051004;28;19968;-66
2023/05/30 11:47:31;;;;;;;;;;;;;;;;;;5051422;28;19921;-66
2023/05/30 11:49:57;;;;;;;;;;;;;;;;;;5052539;28;19925;-66
2023/05/30 11:52:23;;;;;;;;;;;;;;;;;;5055067;28;19925;-66
2023/05/30 11:54:49;;;;;;;;;;;;;;;;;;5055031;28;19921;-66
2023/05/30 11:57:17;;;;;;;;;;;;;;;;;;5055038;28;19935;-66
2023/05/30 11:59:43;;;;;;;;;;;;;;;;;;5053412;28;19975;-66
2023/05/30 12:02:09;;;;;;;;;;;;;;;;;;5055152;28;19924;-66
2023/05/30 12:04:37;;;;;;;;;;;;;;;;;;5054658;28;20289;-66
2023/05/30 12:07:03;;;;;;;;;;;;;;;;;;5055076;28;20353;-66
2023/05/30 12:09:29;;;;;;;;;;;;;;;;;;5054655;28;19920;-67
2023/05/30 12:11:55;;;;;;;;;;;;;;;;;;5054642;28;20320;-66
2023/05/30 12:14:21;;;;;;;;;;;;;;;;;;5054733;28;19944;-66
2023/05/30 12:16:47;;;;;;;;;;;;;;;;;;5054594;28;20383;-66
2023/05/30 12:19:13;;;;;;;;;;;;;;;;;;5054726;28;19956;-66
2023/05/30 12:21:39;;;;;;;;;;;;;;;;;;5054488;28;20305;-66
2023/05/30 12:24:06;;;;;;;;;;;;;;;;;;5054689;28;19929;-66
2023/05/30 12:26:32;;;;;;;;;;;;;;;;;;5054578;28;20560;-66
2023/05/30 12:28:57;;;;;;;;;;;;;;;;;;5053026;28;19925;-66
2023/05/30 12:31:23;;;;;;;;;;;;;;;;;;5054157;28;19944;-66
2023/05/30 12:33:49;;;;;;;;;;;;;;;;;;5054432;28;19956;-66
2023/05/30 12:36:15;;;;;;;;;;;;;;;;;;5054195;28;20460;-66
2023/05/30 12:38:41;;;;;;;;;;;;;;;;;;5054398;28;19932;-66
2023/05/30 12:41:07;;;;;;;;;;;;;;;;;;5052739;28;19920;-66
2023/05/30 12:43:33;;;;;;;;;;;;;;;;;;5054322;28;19925;-66
2023/05/30 12:45:59;;;;;;;;;;;;;;;;;;5054083;28;20448;-66
2023/05/30 12:48:25;;;;;;;;;;;;;;;;;;5053911;28;20399;-66
2023/05/30 12:50:52;;;;;;;;;;;;;;;;;;5053902;28;19925;-66
2023/05/30 12:53:18;;;;;;;;;;;;;;;;;;5053926;28;20273;-66
2023/05/30 12:55:44;;;;;;;;;;;;;;;;;;5054131;28;19924;-66
2023/05/30 12:58:10;;;;;;;;;;;;;;;;;;5053726;28;19925;-66
2023/05/30 13:00:36;;;;;;;;;;;;;;;;;;5052322;28;19966;-66
2023/05/30 13:03:02;;;;;;;;;;;;;;;;;;5051992;28;19978;-66
2023/05/30 13:05:28;;;;;;;;;;;;;;;;;;5053811;28;20260;-66
2023/05/30 13:07:54;;;;;;;;;;;;;;;;;;5052473;28;19932;-66
2023/05/30 13:10:21;;;;;;;;;;;;;;;;;;5053551;28;19924;-66
2023/05/30 13:12:46;;;;;;;;;;;;;;;;;;5053503;28;20373;-66
2023/05/30 13:15:12;;;;;;;;;;;;;;;;;;5051995;28;19928;-66
2023/05/30 13:17:38;;;;;;;;;;;;;;;;;;5053562;28;20002;-66
2023/05/30 13:20:05;;;;;;;;;;;;;;;;;;5053486;28;19954;-66
2023/05/30 13:22:31;;;;;;;;;;;;;;;;;;5053328;28;19971;-66
2023/05/30 13:24:57;;;;;;;;;;;;;;;;;;5053341;28;20058;-66
2023/05/30 13:27:23;;;;;;;;;;;;;;;;;;5053230;28;19944;-66
2023/05/30 13:29:49;;;;;;;;;;;;;;;;;;5053213;28;20461;-66
2023/05/30 13:32:15;;;;;;;;;;;;;;;;;;5053360;28;19925;-66
2023/05/30 13:34:41;;;;;;;;;;;;;;;;;;5053266;28;19927;-66
2023/05/30 13:37:07;;;;;;;;;;;;;;;;;;5052842;28;19929;-66
2023/05/30 13:39:33;;;;;;;;;;;;;;;;;;5052988;28;19967;-66
2023/05/30 13:42:00;;;;;;;;;;;;;;;;;;5053106;28;19999;-66
2023/05/30 13:44:26;;;;;;;;;;;;;;;;;;5053256;28;19921;-66
2023/05/30 13:46:53;;;;;;;;;;;;;;;;;;5052984;28;19921;-66
2023/05/30 13:49:21;;;;;;;;;;;;;;;;;;5052893;28;20580;-66
2023/05/30 13:51:47;;;;;;;;;;;;;;;;;;5052679;28;19929;-67
2023/05/30 13:54:13;;;;;;;;;;;;;;;;;;5052865;28;19927;-66
2023/05/30 13:56:39;;;;;;;;;;;;;;;;;;5052900;28;19935;-66
2023/05/30 13:59:05;;;;;;;;;;;;;;;;;;5052914;28;19944;-66
2023/05/30 14:01:32;;;;;;;;;;;;;;;;;;5052701;28;20390;-66
2023/05/30 14:03:58;;;;;;;;;;;;;;;;;;5051645;28;19947;-66
2023/05/30 14:06:23;;;;;;;;;;;;;;;;;;5052645;28;20370;-66
2023/05/30 14:08:50;;;;;;;;;;;;;;;;;;5052536;28;20331;-66
2023/05/30 14:11:16;;;;;;;;;;;;;;;;;;5034396;28;19928;-66
2023/05/30 14:13:42;;;;;;;;;;;;;;;;;;5049942;28;20012;-66
2023/05/30 14:16:08;;;;;;;;;;;;;;;;;;5052028;28;19978;-66
2023/05/30 14:18:34;;;;;;;;;;;;;;;;;;5050414;28;20668;-66
2023/05/30 14:21:02;;;;;;;;;;;;;;;;;;5051754;28;20015;-66
2023/05/30 14:23:28;;;;;;;;;;;;;;;;;;5051625;28;19974;-67
2023/05/30 14:25:53;;;;;;;;;;;;;;;;;;5051673;28;19921;-67
2023/05/30 14:28:19;;;;;;;;;;;;;;;;;;5051278;28;19920;-68
2023/05/30 14:30:45;;;;;;;;;;;;;;;;;;5049973;28;19970;-66
2023/05/30 14:33:11;;;;;;;;;;;;;;;;;;5051377;28;20404;-67
2023/05/30 14:35:37;;;;;;;;;;;;;;;;;;5051407;28;19980;-66
2023/05/30 14:38:03;;;;;;;;;;;;;;;;;;5051031;28;19924;-66
2023/05/30 14:40:29;;;;;;;;;;;;;;;;;;5051231;28;19924;-66
2023/05/30 14:42:55;;;;;;;;;;;;;;;;;;5050931;28;19994;-66
2023/05/30 14:45:23;;;;;;;;;;;;;;;;;;5049704;28;19921;-66
2023/05/30 14:47:50;;;;;;;;;;;;;;;;;;5050966;28;19970;-66
2023/05/30 14:50:15;;;;;;;;;;;;;;;;;;5049591;28;19932;-66
2023/05/30 14:52:41;;;;;;;;;;;;;;;;;;5050586;28;19924;-66
2023/05/30 14:55:08;;;;;;;;;;;;;;;;;;5032790;28;19970;-66
2023/05/30 14:57:34;;;;;;;;;;;;;;;;;;5050881;28;19925;-66
2023/05/30 15:00:00;;;;;;;;;;;;;;;;;;5051744;28;19960;-66
2023/05/30 15:02:26;;;;;;;;;;;;;;;;;;5051662;28;20298;-66
2023/05/30 15:04:52;;;;;;;;;;;;;;;;;;5050743;28;19921;-66
2023/05/30 15:07:18;;;;;;;;;;;;;;;;;;5050754;28;19922;-67
2023/05/30 15:09:44;;;;;;;;;;;;;;;;;;5049341;28;19952;-66
2023/05/30 15:12:10;;;;;;;;;;;;;;;;;;5050504;28;19921;-66
2023/05/30 15:14:36;;;;;;;;;;;;;;;;;;5050604;28;20429;-66
2023/05/30 15:17:02;;;;;;;;;;;;;;;;;;5050343;28;19929;-66
2023/05/30 15:19:28;;;;;;;;;;;;;;;;;;5050782;28;19928;-66
2023/05/30 15:21:54;;;;;;;;;;;;;;;;;;5051175;28;19929;-66
2023/05/30 15:24:20;;;;;;;;;;;;;;;;;;5052044;28;19921;-66
2023/05/30 15:26:46;;;;;;;;;;;;;;;;;;5055933;28;19924;-66
2023/05/30 15:29:12;;;;;;;;;;;;;;;;;;5055711;28;20267;-66
2023/05/30 15:31:38;;;;;;;;;;;;;;;;;;5055717;28;19921;-66
2023/05/30 15:34:04;;;;;;;;;;;;;;;;;;5055297;28;19929;-66
2023/05/30 15:36:30;;;;;;;;;;;;;;;;;;5053929;28;20584;-66
2023/05/30 15:38:56;;;;;;;;;;;;;;;;;;5055289;28;19927;-67
2023/05/30 15:41:22;;;;;;;;;;;;;;;;;;5055322;28;19926;-66
2023/05/30 15:43:48;;;;;;;;;;;;;;;;;;5055400;28;19925;-66
2023/05/30 15:46:17;;;;;;;;;;;;;;;;;;5055116;28;20504;-66
2023/05/30 15:48:43;;;;;;;;;;;;;;;;;;5053771;28;19947;-66
2023/05/30 15:51:09;;;;;;;;;;;;;;;;;;5054982;28;20449;-66
2023/05/30 15:53:34;;;;;;;;;;;;;;;;;;5055096;28;19929;-66
2023/05/30 15:56:00;;;;;;;;;;;;;;;;;;5054969;28;19944;-66
2023/05/30 15:58:26;;;;;;;;;;;;;;;;;;5054971;28;20008;-66
2023/05/30 16:00:52;;;;;;;;;;;;;;;;;;5055157;28;19977;-66
2023/05/30 16:03:18;;;;;;;;;;;;;;;;;;5054671;28;20402;-66
2023/05/30 16:05:44;;;;;;;;;;;;;;;;;;5054798;28;20011;-66
2023/05/30 16:08:10;;;;;;;;;;;;;;;;;;5054946;28;19952;-66
2023/05/30 16:10:36;;;;;;;;;;;;;;;;;;5054707;28;20385;-66
2023/05/30 16:13:02;;;;;;;;;;;;;;;;;;5053426;28;19925;-66
2023/05/30 16:15:28;;;;;;;;;;;;;;;;;;5054861;28;20358;-66
2023/05/30 16:17:54;;;;;;;;;;;;;;;;;;5054752;28;19975;-66
2023/05/30 16:20:20;;;;;;;;;;;;;;;;;;5054931;28;19956;-66
2023/05/30 16:22:46;;;;;;;;;;;;;;;;;;5054448;28;20389;-66
2023/05/30 16:25:12;;;;;;;;;;;;;;;;;;5036562;28;19925;-66
2023/05/30 16:27:38;;;;;;;;;;;;;;;;;;5053103;28;19920;-66
2023/05/30 16:30:04;;;;;;;;;;;;;;;;;;5052873;28;19924;-66
2023/05/30 16:32:30;;;;;;;;;;;;;;;;;;5054771;28;19947;-66
2023/05/30 16:34:56;;;;;;;;;;;;;;;;;;5054405;28;19921;-66
2023/05/30 16:37:21;;;;;;;;;;;;;;;;;;5053426;28;20351;-66
2023/05/30 16:39:47;;;;;;;;;;;;;;;;;;5054246;28;19925;-67